sensor_id;sensor_type;location;lat;lon;timestamp;pressure;altitude;pressure_sealevel;temperature;humidity
19674;BME280;9986;50.610;7.230;2024-01-30T00:01:47;92723.67;;;6.48;100.00
19674;BME280;9986;50.610;7.230;2024-01-30T00:07:00;86045.17;;;6.47;100.00
19674;BME280;9986;50.610;7.230;2024-01-30T00:17:38;62433.56;;;6.38;100.00
19674;BME280;9986;50.610;7.230;2024-01-30T00:20:10;57035.93;;;6.33;100.00
19674;BME280;9986;50.610;7.230;2024-01-30T00:33:25;66071.30;;;6.32;100.00
19674;BME280;9986;50.610;7.230;2024-01-30T00:41:22;48207.52;;;6.23;100.00
19674;BME280;9986;50.610;7.230;2024-01-30T00:46:31;51173.34;;;6.19;100.00
19674;BME280;9986;50.610;7.230;2024-01-30T00:54:23;58286.93;;;6.07;100.00
19674;BME280;9986;50.610;7.230;2024-01-30T00:59:37;58754.10;;;6.02;100.00
19674;BME280;9986;50.610;7.230;2024-01-30T01:15:37;59232.07;;;5.85;100.00
19674;BME280;9986;50.610;7.230;2024-01-30T01:23:34;68160.91;;;5.77;100.00
19674;BME280;9986;50.610;7.230;2024-01-30T01:34:05;62521.99;;;5.69;100.00
19674;BME280;9986;50.610;7.230;2024-01-30T01:41:56;50463.87;;;5.65;100.00
19674;BME280;9986;50.610;7.230;2024-01-30T01:47:05;33700.37;;;5.77;100.00
19674;BME280;9986;50.610;7.230;2024-01-30T01:52:19;28290.28;;;5.75;100.00
19674;BME280;9986;50.610;7.230;2024-01-30T02:02:55;30089.36;;;5.70;100.00
19674;BME280;9986;50.610;7.230;2024-01-30T02:08:11;30254.66;;;5.72;100.00
19674;BME280;9986;50.610;7.230;2024-01-30T02:18:47;36971.05;;;5.60;100.00
19674;BME280;9986;50.610;7.230;2024-01-30T02:21:18;33032.38;;;5.58;100.00
19674;BME280;9986;50.610;7.230;2024-01-30T02:34:31;42385.92;;;5.52;100.00
19674;BME280;9986;50.610;7.230;2024-01-30T02:47:51;51099.16;;;5.40;100.00
19674;BME280;9986;50.610;7.230;2024-01-30T02:55:43;44178.15;;;5.31;100.00
19674;BME280;9986;50.610;7.230;2024-01-30T03:08:55;38587.52;;;5.25;100.00
19674;BME280;9986;50.610;7.230;2024-01-30T03:14:04;35466.33;;;5.19;100.00
19674;BME280;9986;50.610;7.230;2024-01-30T03:19:17;30218.48;;;5.10;100.00
19674;BME280;9986;50.610;7.230;2024-01-30T03:27:05;25802.03;;;5.11;100.00
19674;BME280;9986;50.610;7.230;2024-01-30T03:32:23;24167.21;;;5.10;100.00
19674;BME280;9986;50.610;7.230;2024-01-30T03:40:15;17150.77;;;5.15;100.00
19674;BME280;9986;50.610;7.230;2024-01-30T03:50:53;19762.20;;;5.19;100.00
19674;BME280;9986;50.610;7.230;2024-01-30T03:58:44;22375.54;;;5.21;100.00
19674;BME280;9986;50.610;7.230;2024-01-30T04:09:13;24815.21;;;4.98;100.00
19674;BME280;9986;50.610;7.230;2024-01-30T04:17:04;13563.84;;;5.10;100.00
19674;BME280;9986;50.610;7.230;2024-01-30T04:24:55;12418.69;;;4.92;100.00
19674;BME280;9986;50.610;7.230;2024-01-30T04:30:11;12742.94;;;4.87;100.00
19674;BME280;9986;50.610;7.230;2024-01-30T04:35:24;15185.71;;;4.88;100.00
19674;BME280;9986;50.610;7.230;2024-01-30T04:40:37;15996.85;;;4.78;100.00
19674;BME280;9986;50.610;7.230;2024-01-30T04:48:28;16159.76;;;4.78;100.00
19674;BME280;9986;50.610;7.230;2024-01-30T04:53:42;16319.89;;;4.70;100.00
19674;BME280;9986;50.610;7.230;2024-01-30T05:15:00;8015.89;;;4.40;100.00
19674;BME280;9986;50.610;7.230;2024-01-30T05:31:07;-1713.77;;;4.48;100.00
19674;BME280;9986;50.610;7.230;2024-01-30T05:41:42;-2199.76;;;4.44;100.00
19674;BME280;9986;50.610;7.230;2024-01-30T05:46:51;-4465.79;;;4.46;100.00
19674;BME280;9986;50.610;7.230;2024-01-30T06:00:12;-3494.73;;;4.49;100.00
19674;BME280;9986;50.610;7.230;2024-01-30T06:10:47;-3333.10;;;4.39;100.00
19674;BME280;9986;50.610;7.230;2024-01-30T06:18:38;-4304.01;;;4.42;100.00
19674;BME280;9986;50.610;7.230;2024-01-30T06:23:51;-3494.93;;;4.39;100.00
19674;BME280;9986;50.610;7.230;2024-01-30T06:34:26;-6406.57;;;4.33;100.00
19674;BME280;9986;50.610;7.230;2024-01-30T06:42:18;-5274.56;;;4.27;100.00
19674;BME280;9986;50.610;7.230;2024-01-30T06:47:28;-5597.96;;;4.26;100.00
19674;BME280;9986;50.610;7.230;2024-01-30T06:52:43;-8184.38;;;4.30;100.00
19674;BME280;9986;50.610;7.230;2024-01-30T06:57:58;-8830.30;;;4.25;100.00
19674;BME280;9986;50.610;7.230;2024-01-30T07:19:35;-6729.23;;;4.13;100.00
19674;BME280;9986;50.610;7.230;2024-01-30T07:32:51;-6244.30;;;4.10;100.00
19674;BME280;9986;50.610;7.230;2024-01-30T07:40:39;-9152.89;;;4.19;100.00
19674;BME280;9986;50.610;7.230;2024-01-30T07:53:52;-7052.85;;;4.24;100.00
19674;BME280;9986;50.610;7.230;2024-01-30T07:59:10;-6244.71;;;4.26;100.00
19674;BME280;9986;50.610;7.230;2024-01-30T08:12:19;-6568.40;;;4.39;100.00
19674;BME280;9986;50.610;7.230;2024-01-30T08:22:49;-6892.52;;;4.60;100.00
19674;BME280;9986;50.610;7.230;2024-01-30T08:41:31;-5275.08;;;4.87;100.00
19674;BME280;9986;50.610;7.230;2024-01-30T08:49:21;-3493.58;;;5.04;100.00
19674;BME280;9986;50.610;7.230;2024-01-30T08:54:34;-1224.37;;;5.08;100.00
19674;BME280;9986;50.610;7.230;2024-01-30T09:02:20;3157.14;;;5.15;100.00
19674;BME280;9986;50.610;7.230;2024-01-30T09:07:33;5106.83;;;5.19;100.00
19674;BME280;9986;50.610;7.230;2024-01-30T09:20:54;12594.77;;;5.38;100.00
19674;BME280;9986;50.610;7.230;2024-01-30T09:26:07;13900.07;;;5.44;100.00
19674;BME280;9986;50.610;7.230;2024-01-30T09:36:38;16026.34;;;5.64;100.00
19674;BME280;9986;50.610;7.230;2024-01-30T09:44:35;17987.20;;;5.71;100.00
19674;BME280;9986;50.610;7.230;2024-01-30T09:52:28;18972.36;;;5.85;100.00
19674;BME280;9986;50.610;7.230;2024-01-30T09:57:41;18814.48;;;5.99;100.00
19674;BME280;9986;50.610;7.230;2024-01-30T10:02:55;21272.37;;;6.14;100.00
19674;BME280;9986;50.610;7.230;2024-01-30T10:13:28;22102.10;;;6.41;100.00
19674;BME280;9986;50.610;7.230;2024-01-30T10:18:42;22444.46;;;6.74;100.00
19674;BME280;9986;50.610;7.230;2024-01-30T10:26:33;38886.95;;;7.11;100.00
19674;BME280;9986;50.610;7.230;2024-01-30T10:31:46;43689.56;;;7.41;100.00
19674;BME280;9986;50.610;7.230;2024-01-30T10:42:25;83055.96;;;7.68;100.00
19674;BME280;9986;50.610;7.230;2024-01-30T10:47:43;97626.67;;;7.76;100.00
19674;BME280;9986;50.610;7.230;2024-01-30T10:52:57;110244.92;;;7.86;100.00
19674;BME280;9986;50.610;7.230;2024-01-30T11:03:37;144803.03;;;8.06;100.00
19674;BME280;9986;50.610;7.230;2024-01-30T11:17:16;144868.33;;;8.32;100.00
19674;BME280;9986;50.610;7.230;2024-01-30T11:30:43;144849.50;;;8.25;100.00
19674;BME280;9986;50.610;7.230;2024-01-30T11:38:44;144860.83;;;8.29;100.00
19674;BME280;9986;50.610;7.230;2024-01-30T11:46:43;144874.62;;;8.35;100.00
19674;BME280;9986;50.610;7.230;2024-01-30T11:51:56;144879.61;;;8.36;100.00
19674;BME280;9986;50.610;7.230;2024-01-30T11:57:12;144882.13;;;8.37;100.00
19674;BME280;9986;50.610;7.230;2024-01-30T12:07:50;144912.23;;;8.49;100.00
19674;BME280;9986;50.610;7.230;2024-01-30T12:21:15;144987.55;;;8.79;100.00
19674;BME280;9986;50.610;7.230;2024-01-30T12:26:28;145015.16;;;8.90;100.00
19674;BME280;9986;50.610;7.230;2024-01-30T12:42:14;145077.92;;;9.15;100.00
19674;BME280;9986;50.610;7.230;2024-01-30T12:52:44;145087.98;;;9.19;100.00
19674;BME280;9986;50.610;7.230;2024-01-30T13:03:11;145100.56;;;9.24;100.00
19674;BME280;9986;50.610;7.230;2024-01-30T13:11:02;145113.09;;;9.29;100.00
19674;BME280;9986;50.610;7.230;2024-01-30T13:24:12;145149.55;;;9.43;100.00
19674;BME280;9986;50.610;7.230;2024-01-30T13:29:21;145167.11;;;9.50;100.00
19674;BME280;9986;50.610;7.230;2024-01-30T13:34:35;145175.89;;;9.54;100.00
19674;BME280;9986;50.610;7.230;2024-01-30T13:45:09;145179.69;;;9.55;100.00
19674;BME280;9986;50.610;7.230;2024-01-30T13:55:33;145218.61;;;9.71;100.00
19674;BME280;9986;50.610;7.230;2024-01-30T14:06:15;145257.55;;;9.86;100.00
19674;BME280;9986;50.610;7.230;2024-01-30T14:27:36;145283.95;;;9.97;100.00
19674;BME280;9986;50.610;7.230;2024-01-30T14:32:46;145291.55;;;10.00;100.00
19674;BME280;9986;50.610;7.230;2024-01-30T14:40:38;145309.13;;;10.07;100.00
19674;BME280;9986;50.610;7.230;2024-01-30T14:45:52;145315.44;;;10.09;100.00
19674;BME280;9986;50.610;7.230;2024-01-30T15:02:04;145297.81;;;10.02;100.00
19674;BME280;9986;50.610;7.230;2024-01-30T15:09:56;145297.81;;;10.02;100.00
19674;BME280;9986;50.610;7.230;2024-01-30T15:25:50;145302.86;;;10.04;100.00
19674;BME280;9986;50.610;7.230;2024-01-30T15:33:44;145266.38;;;9.90;100.00
19674;BME280;9986;50.610;7.230;2024-01-30T15:44:16;145234.94;;;9.77;100.00
19674;BME280;9986;50.610;7.230;2024-01-30T15:52:09;145223.64;;;9.73;100.00
19674;BME280;9986;50.610;7.230;2024-01-30T15:57:21;145229.91;;;9.75;100.00
19674;BME280;9986;50.610;7.230;2024-01-30T16:05:18;145188.47;;;9.59;100.00
19674;BME280;9986;50.610;7.230;2024-01-30T16:18:29;145169.63;;;9.51;100.00
19674;BME280;9986;50.610;7.230;2024-01-30T16:23:39;145175.89;;;9.54;100.00
19674;BME280;9986;50.610;7.230;2024-01-30T16:28:53;145187.23;;;9.58;100.00
19674;BME280;9986;50.610;7.230;2024-01-30T16:39:34;145190.98;;;9.60;100.00
19674;BME280;9986;50.610;7.230;2024-01-30T17:09:09;145128.19;;;9.35;100.00
19674;BME280;9986;50.610;7.230;2024-01-30T17:14:26;145128.19;;;9.35;100.00
19674;BME280;9986;50.610;7.230;2024-01-30T17:22:21;145134.45;;;9.37;100.00
19674;BME280;9986;50.610;7.230;2024-01-30T17:27:35;145118.13;;;9.31;100.00
19674;BME280;9986;50.610;7.230;2024-01-30T17:32:46;145144.52;;;9.41;100.00
19674;BME280;9986;50.610;7.230;2024-01-30T17:37:59;145131.94;;;9.36;100.00
19674;BME280;9986;50.610;7.230;2024-01-30T17:43:13;145118.13;;;9.31;100.00
19674;BME280;9986;50.610;7.230;2024-01-30T17:51:06;145098.05;;;9.23;100.00
19674;BME280;9986;50.610;7.230;2024-01-30T18:01:46;145128.19;;;9.35;100.00
19674;BME280;9986;50.610;7.230;2024-01-30T18:17:35;145223.64;;;9.73;100.00
19674;BME280;9986;50.610;7.230;2024-01-30T18:25:26;145262.58;;;9.88;100.00
19674;BME280;9986;50.610;7.230;2024-01-30T18:38:48;145268.89;;;9.91;100.00
19674;BME280;9986;50.610;7.230;2024-01-30T18:46:40;145271.41;;;9.92;100.00
19674;BME280;9986;50.610;7.230;2024-01-30T18:54:39;145245.02;;;9.81;100.00
19674;BME280;9986;50.610;7.230;2024-01-30T19:05:13;145246.25;;;9.82;100.00
19674;BME280;9986;50.610;7.230;2024-01-30T19:15:47;145239.97;;;9.79;100.00
19674;BME280;9986;50.610;7.230;2024-01-30T19:21:01;145248.77;;;9.83;100.00
19674;BME280;9986;50.610;7.230;2024-01-30T19:26:15;145263.86;;;9.89;100.00
19674;BME280;9986;50.610;7.230;2024-01-30T19:31:26;145239.97;;;9.79;100.00
19674;BME280;9986;50.610;7.230;2024-01-30T19:36:39;145218.61;;;9.71;100.00
19674;BME280;9986;50.610;7.230;2024-01-30T19:49:47;145202.28;;;9.64;100.00
19674;BME280;9986;50.610;7.230;2024-01-30T19:54:57;145203.56;;;9.65;100.00
19674;BME280;9986;50.610;7.230;2024-01-30T20:02:49;145194.73;;;9.61;100.00
19674;BME280;9986;50.610;7.230;2024-01-30T20:13:20;145185.95;;;9.58;100.00
19674;BME280;9986;50.610;7.230;2024-01-30T20:35:31;145173.42;;;9.53;100.00
19674;BME280;9986;50.610;7.230;2024-01-30T20:40:44;145175.89;;;9.54;100.00
19674;BME280;9986;50.610;7.230;2024-01-30T20:51:20;145139.47;;;9.39;100.00
19674;BME280;9986;50.610;7.230;2024-01-30T20:59:11;145108.11;;;9.27;100.00
19674;BME280;9986;50.610;7.230;2024-01-30T21:12:37;145103.08;;;9.25;100.00
19674;BME280;9986;50.610;7.230;2024-01-30T21:20:37;145069.16;;;9.12;100.00
19674;BME280;9986;50.610;7.230;2024-01-30T21:25:58;145079.20;;;9.16;100.00
19674;BME280;9986;50.610;7.230;2024-01-30T21:31:13;145061.61;;;9.09;100.00
19674;BME280;9986;50.610;7.230;2024-01-30T21:41:51;145055.34;;;9.06;100.00
19674;BME280;9986;50.610;7.230;2024-01-30T21:49:43;145015.16;;;8.90;100.00
19674;BME280;9986;50.610;7.230;2024-01-30T22:03:05;145005.16;;;8.86;100.00
19674;BME280;9986;50.610;7.230;2024-01-30T22:08:18;144993.81;;;8.82;100.00
19674;BME280;9986;50.610;7.230;2024-01-30T22:16:15;144981.28;;;8.77;100.00
19674;BME280;9986;50.610;7.230;2024-01-30T22:21:28;144990.06;;;8.80;100.00
19674;BME280;9986;50.610;7.230;2024-01-30T22:29:22;145012.64;;;8.89;100.00
19674;BME280;9986;50.610;7.230;2024-01-30T22:43:33;144962.45;;;8.69;100.00
19674;BME280;9986;50.610;7.230;2024-01-30T22:48:42;144956.20;;;8.67;100.00
19674;BME280;9986;50.610;7.230;2024-01-30T22:53:56;144937.38;;;8.59;100.00
19674;BME280;9986;50.610;7.230;2024-01-30T23:09:43;144928.55;;;8.56;100.00
19674;BME280;9986;50.610;7.230;2024-01-30T23:22:58;144939.87;;;8.60;100.00
19674;BME280;9986;50.610;7.230;2024-01-30T23:33:43;144929.83;;;8.56;100.00
19674;BME280;9986;50.610;7.230;2024-01-30T23:49:43;144899.72;;;8.44;100.00
19674;BME280;9986;50.610;7.230;2024-01-30T23:54:59;144892.17;;;8.41;100.00
